Time;durP1;ratioP1;P1;durP2;ratioP2;P2;SDS_P1;SDS_P2;PMS_P1;PMS_P2;Temp;Humidity;BMP_temperature;BMP_pressure;BME280_temperature;BME280_humidity;BME280_pressure;Samples;Min_cycle;Max_cycle;Signal;HPM_P1;HPM_P2
2023/05/25 00:02:14;;;;;;;0.20;0.20;;;8.10;99.90;;;;;;5013524;28;20029;-68
2023/05/25 00:04:40;;;;;;;0.17;0.17;;;8.00;99.90;;;;;;5019642;28;20033;-69
2023/05/25 00:07:05;;;;;;;0.20;0.20;;;8.00;99.90;;;;;;5032786;28;20518;-69
2023/05/25 00:09:31;;;;;;;0.28;0.28;;;8.00;99.90;;;;;;5032741;28;20033;-69
2023/05/25 00:11:58;;;;;;;0.20;0.20;;;8.00;99.90;;;;;;5013645;28;20068;-69
2023/05/25 00:14:24;;;;;;;0.17;0.17;;;8.00;99.90;;;;;;5013060;28;20025;-68
2023/05/25 00:16:50;;;;;;;0.20;0.20;;;8.10;99.90;;;;;;5013304;28;20025;-68
2023/05/25 00:19:19;;;;;;;0.20;0.20;;;8.20;99.90;;;;;;5013291;28;20026;-68
2023/05/25 00:21:47;;;;;;;0.20;0.20;;;8.30;99.90;;;;;;5027470;28;20492;-69
2023/05/25 00:24:13;;;;;;;0.20;0.20;;;8.40;99.90;;;;;;5032875;28;20075;-68
2023/05/25 00:26:38;;;;;;;0.10;0.10;;;8.50;99.90;;;;;;5033010;28;20486;-69
2023/05/25 00:29:04;;;;;;;0.28;0.28;;;8.60;99.90;;;;;;5033549;28;20105;-68
2023/05/25 00:31:31;;;;;;;0.10;0.10;;;8.70;99.90;;;;;;5032745;28;20068;-68
2023/05/25 00:33:57;;;;;;;0.10;0.10;;;8.80;99.90;;;;;;5036268;28;20376;-69
2023/05/25 00:36:23;;;;;;;0.10;0.10;;;8.90;99.90;;;;;;5036692;28;20020;-69
2023/05/25 00:38:49;;;;;;;0.10;0.10;;;9.10;99.90;;;;;;5036976;28;20029;-69
2023/05/25 00:41:16;;;;;;;0.20;0.20;;;9.20;99.90;;;;;;5036553;28;20017;-68
2023/05/25 00:43:45;;;;;;;0.10;0.10;;;9.20;99.90;;;;;;5036824;28;20030;-69
2023/05/25 00:46:15;;;;;;;0.20;0.20;;;9.20;99.90;;;;;;5036756;28;20021;-68
2023/05/25 00:48:42;;;;;;;0.20;0.20;;;9.20;99.90;;;;;;5036781;28;20049;-69
2023/05/25 00:51:09;;;;;;;0.20;0.20;;;9.30;99.90;;;;;;5036802;28;20083;-69
2023/05/25 00:53:36;;;;;;;0.13;0.13;;;9.20;99.90;;;;;;5036561;28;20021;-68
2023/05/25 00:56:12;;;;;;;0.10;0.10;;;9.10;99.90;;;;;;5035950;28;20096;-69
2023/05/25 00:58:42;;;;;;;0.10;0.10;;;9.10;99.90;;;;;;5036597;28;20426;-68
2023/05/25 01:01:12;;;;;;;0.20;0.20;;;9.10;99.90;;;;;;5036137;28;20032;-69
2023/05/25 01:03:44;;;;;;;0.10;0.10;;;9.10;99.90;;;;;;5036724;28;20100;-69
2023/05/25 01:06:13;;;;;;;0.20;0.20;;;9.10;99.90;;;;;;5036533;28;20025;-69
2023/05/25 01:08:43;;;;;;;0.20;0.20;;;9.10;99.90;;;;;;5036243;28;20110;-69
2023/05/25 01:11:10;;;;;;;0.10;0.10;;;9.20;99.90;;;;;;5036165;28;20040;-69
2023/05/25 01:13:37;;;;;;;0.17;0.17;;;9.20;99.90;;;;;;5036182;28;20030;-68
2023/05/25 01:16:05;;;;;;;0.17;0.17;;;9.10;99.90;;;;;;5035832;28;20032;-68
2023/05/25 01:18:32;;;;;;;0.10;0.10;;;9.00;99.90;;;;;;5018491;28;20033;-68
2023/05/25 01:21:16;;;;;;;0.20;0.20;;;8.90;99.90;;;;;;5035990;28;20032;-69
2023/05/25 01:24:07;;;;;;;0.20;0.20;;;8.90;99.90;;;;;;5036269;28;20018;-69
2023/05/25 01:26:38;;;;;;;0.10;0.10;;;8.80;99.90;;;;;;5034537;28;20029;-70
2023/05/25 01:29:05;;;;;;;0.10;0.10;;;8.80;99.90;;;;;;5036312;28;20494;-68
2023/05/25 01:31:33;;;;;;;0.20;0.20;;;8.80;99.90;;;;;;5035277;28;20041;-69
2023/05/25 01:33:58;;;;;;;0.20;0.20;;;8.80;99.90;;;;;;5022122;28;20481;-69
2023/05/25 01:36:24;;;;;;;0.10;0.10;;;8.70;99.90;;;;;;5015610;28;20030;-69
2023/05/25 01:38:50;;;;;;;0.13;0.13;;;8.70;99.90;;;;;;5024836;28;20026;-69
2023/05/25 01:41:15;;;;;;;0.13;0.13;;;8.70;99.90;;;;;;5035434;28;20021;-69
2023/05/25 01:43:41;;;;;;;0.10;0.10;;;8.60;99.90;;;;;;5034863;28;20026;-69
2023/05/25 01:46:15;;;;;;;0.10;0.10;;;8.50;99.90;;;;;;5035385;28;20022;-69
2023/05/25 01:48:52;;;;;;;;;;;8.40;99.90;;;;;;5036318;28;20040;-69
2023/05/25 01:51:31;;;;;;;0.10;0.10;;;8.50;99.90;;;;;;5035775;28;19996;-68
2023/05/25 01:54:06;;;;;;;0.20;0.20;;;8.50;99.90;;;;;;5035726;28;20094;-69
2023/05/25 01:56:33;;;;;;;0.20;0.20;;;8.50;99.90;;;;;;5035387;28;20025;-68
2023/05/25 01:59:01;;;;;;;0.10;0.10;;;8.60;99.90;;;;;;5035716;28;20025;-68
2023/05/25 02:01:28;;;;;;;0.20;0.20;;;8.70;99.90;;;;;;5035541;28;20048;-68
2023/05/25 02:03:54;;;;;;;0.20;0.20;;;8.70;99.90;;;;;;5035372;28;20072;-68
2023/05/25 02:06:19;;;;;;;0.20;0.20;;;8.70;99.90;;;;;;5035573;28;20053;-68
2023/05/25 02:08:45;;;;;;;0.20;0.20;;;8.80;99.90;;;;;;5035233;28;20450;-68
2023/05/25 02:11:13;;;;;;;0.20;0.20;;;8.80;99.90;;;;;;5035618;28;20041;-68
2023/05/25 02:13:38;;;;;;;0.20;0.20;;;8.70;99.90;;;;;;5035177;28;20057;-68
2023/05/25 02:16:04;;;;;;;0.15;0.15;;;8.60;99.90;;;;;;5035073;28;20083;-68
2023/05/25 02:18:30;;;;;;;0.10;0.10;;;8.50;99.90;;;;;;5017302;28;20376;-69
2023/05/25 02:20:56;;;;;;;0.10;0.10;;;8.50;99.90;;;;;;5035214;28;20105;-68
2023/05/25 02:23:21;;;;;;;0.10;0.10;;;8.40;99.90;;;;;;5035196;28;20483;-68
2023/05/25 02:25:47;;;;;;;0.20;0.20;;;8.30;99.90;;;;;;5034942;28;20025;-68
2023/05/25 02:28:13;;;;;;;0.13;0.13;;;8.30;99.90;;;;;;5034856;28;20036;-68
2023/05/25 02:30:39;;;;;;;0.20;0.20;;;8.30;99.90;;;;;;5048480;23;20183;-76
2023/05/25 02:33:05;;;;;;;0.22;0.22;;;8.20;99.90;;;;;;5033524;28;20045;-76
2023/05/25 02:35:30;;;;;;;0.20;0.20;;;8.10;99.90;;;;;;5034981;28;20034;-76
2023/05/25 02:37:56;;;;;;;0.10;0.10;;;8.00;99.90;;;;;;5034679;28;20025;-76
2023/05/25 02:40:22;;;;;;;0.10;0.10;;;8.00;99.90;;;;;;5034618;28;20029;-76
2023/05/25 02:42:47;;;;;;;0.20;0.20;;;7.90;99.90;;;;;;5034704;28;20026;-76
2023/05/25 02:45:13;;;;;;;0.20;0.20;;;7.80;99.90;;;;;;5034560;28;20479;-76
2023/05/25 02:47:38;;;;;;;0.20;0.20;;;7.80;99.90;;;;;;5033482;28;20122;-76
2023/05/25 02:50:04;;;;;;;0.20;0.20;;;7.90;99.90;;;;;;5034664;28;20029;-76
2023/05/25 02:52:31;;;;;;;0.20;0.20;;;7.90;99.90;;;;;;5034380;28;20025;-76
2023/05/25 02:54:57;;;;;;;0.17;0.17;;;7.90;99.90;;;;;;5032551;28;20549;-75
2023/05/25 02:57:23;;;;;;;0.10;0.10;;;8.10;99.90;;;;;;5034024;28;20033;-76
2023/05/25 02:59:48;;;;;;;0.20;0.20;;;8.10;99.90;;;;;;5033065;28;20021;-76
2023/05/25 03:02:17;;;;;;;0.20;0.20;;;8.10;99.90;;;;;;5034074;28;20061;-77
2023/05/25 03:04:48;;;;;;;0.13;0.13;;;8.00;99.90;;;;;;5034778;28;20028;-77
2023/05/25 03:07:14;;;;;;;0.20;0.20;;;8.00;99.90;;;;;;5034584;28;20018;-77
2023/05/25 03:09:39;;;;;;;0.20;0.20;;;8.10;99.90;;;;;;5034084;28;20033;-77
2023/05/25 03:12:05;;;;;;;0.10;0.10;;;8.10;99.90;;;;;;5033969;28;20083;-77
2023/05/25 03:14:31;;;;;;;0.10;0.10;;;8.10;99.90;;;;;;5033886;28;20025;-76
2023/05/25 03:16:56;;;;;;;0.13;0.13;;;8.20;99.90;;;;;;5024993;28;20484;-77
2023/05/25 03:19:22;;;;;;;0.13;0.13;;;8.10;99.90;;;;;;5016217;28;20032;-77
2023/05/25 03:21:47;;;;;;;0.20;0.20;;;8.10;99.90;;;;;;5020807;28;20084;-77
2023/05/25 03:24:13;;;;;;;0.20;0.20;;;8.10;99.90;;;;;;5029212;28;20394;-76
2023/05/25 03:26:38;;;;;;;0.20;0.20;;;8.00;99.90;;;;;;5033474;28;20037;-77
2023/05/25 03:29:07;;;;;;;0.20;0.20;;;8.00;99.90;;;;;;5033644;28;20022;-76
2023/05/25 03:31:32;;;;;;;0.20;0.20;;;8.00;99.90;;;;;;5033446;28;20132;-77
2023/05/25 03:33:58;;;;;;;0.20;0.20;;;8.00;99.90;;;;;;5033465;28;20025;-76
2023/05/25 03:36:26;;;;;;;0.20;0.20;;;8.00;99.90;;;;;;5033810;28;20021;-76
2023/05/25 03:38:52;;;;;;;0.20;0.20;;;8.10;99.90;;;;;;5033496;28;20017;-76
2023/05/25 03:41:17;;;;;;;0.20;0.20;;;8.10;99.90;;;;;;5033534;28;20159;-76
2023/05/25 03:43:43;;;;;;;0.20;0.20;;;8.10;99.90;;;;;;5033514;28;20546;-76
2023/05/25 03:46:10;;;;;;;0.20;0.20;;;8.10;99.90;;;;;;5033672;28;20033;-76
2023/05/25 03:48:36;;;;;;;0.20;0.20;;;8.10;99.90;;;;;;5033358;28;20026;-76
2023/05/25 03:51:01;;;;;;;0.20;0.20;;;8.20;99.90;;;;;;5033456;28;20040;-76
2023/05/25 03:53:27;;;;;;;0.20;0.20;;;8.20;99.90;;;;;;5033401;28;20049;-76
2023/05/25 03:55:52;;;;;;;0.10;0.10;;;8.20;99.90;;;;;;5033145;28;20067;-76
2023/05/25 03:58:18;;;;;;;0.20;0.20;;;8.20;99.90;;;;;;5033305;28;20022;-76
2023/05/25 04:00:44;;;;;;;0.20;0.20;;;8.20;99.90;;;;;;5033158;28;20395;-76
2023/05/25 04:03:09;;;;;;;0.10;0.10;;;8.30;99.90;;;;;;5033096;28;20021;-76
2023/05/25 04:05:35;;;;;;;0.10;0.10;;;8.30;99.90;;;;;;5030529;28;20040;-76
2023/05/25 04:08:02;;;;;;;0.10;0.10;;;8.30;99.90;;;;;;5023021;28;20399;-76
2023/05/25 04:10:27;;;;;;;0.20;0.20;;;8.30;99.90;;;;;;5030364;28;20021;-76
2023/05/25 04:12:55;;;;;;;0.20;0.20;;;8.40;99.90;;;;;;5032838;28;20032;-76
2023/05/25 04:15:21;;;;;;;0.10;0.10;;;8.50;99.90;;;;;;5030977;28;20475;-76
2023/05/25 04:17:46;;;;;;;0.28;0.28;;;8.50;99.90;;;;;;5033193;28;20025;-76
2023/05/25 04:20:12;;;;;;;0.20;0.20;;;8.50;99.90;;;;;;5032352;28;20025;-76
2023/05/25 04:22:38;;;;;;;0.10;0.10;;;8.60;99.90;;;;;;5033016;28;20032;-76
2023/05/25 04:25:07;;;;;;;0.10;0.10;;;8.70;99.90;;;;;;5033000;28;20022;-76
2023/05/25 04:27:33;;;;;;;0.20;0.20;;;8.70;99.90;;;;;;5032977;28;20025;-76
2023/05/25 04:29:59;;;;;;;0.20;0.20;;;8.80;99.90;;;;;;5032810;28;20033;-76
2023/05/25 04:32:28;;;;;;;0.20;0.20;;;8.80;99.90;;;;;;5032875;28;20029;-76
2023/05/25 04:34:55;;;;;;;0.10;0.10;;;8.90;99.90;;;;;;5032828;28;20029;-76
2023/05/25 04:37:22;;;;;;;0.20;0.20;;;8.90;99.90;;;;;;5032927;28;20030;-76
2023/05/25 04:39:47;;;;;;;0.10;0.10;;;9.00;99.90;;;;;;5032999;28;20100;-76
2023/05/25 04:42:13;;;;;;;0.20;0.20;;;9.10;99.90;;;;;;5033006;28;20057;-76
2023/05/25 04:44:39;;;;;;;0.20;0.20;;;9.10;99.90;;;;;;5033184;28;20026;-76
2023/05/25 04:47:06;;;;;;;0.20;0.20;;;9.20;99.90;;;;;;5033077;28;20030;-75
2023/05/25 04:49:32;;;;;;;0.20;0.20;;;9.30;99.90;;;;;;5031740;28;20029;-76
2023/05/25 04:51:58;;;;;;;0.20;0.20;;;9.30;99.90;;;;;;5032735;28;20022;-76
2023/05/25 04:54:24;;;;;;;0.10;0.10;;;9.40;99.90;;;;;;5032780;28;20022;-76
2023/05/25 04:56:49;;;;;;;0.20;0.20;;;9.50;99.90;;;;;;5032740;28;20475;-76
2023/05/25 04:59:15;;;;;;;0.10;0.10;;;9.60;99.90;;;;;;5031403;28;20025;-76
2023/05/25 05:01:43;;;;;;;0.22;0.22;;;9.70;99.90;;;;;;5032662;28;20029;-76
2023/05/25 05:04:09;;;;;;;0.10;0.10;;;9.70;99.90;;;;;;5032943;28;20033;-76
2023/05/25 05:06:35;;;;;;;0.30;0.30;;;9.80;99.90;;;;;;5032620;28;20032;-76
2023/05/25 05:09:02;;;;;;;0.20;0.20;;;9.90;99.90;;;;;;5032602;28;20501;-76
2023/05/25 05:11:27;;;;;;;0.17;0.17;;;9.90;99.90;;;;;;5032509;28;20029;-76
2023/05/25 05:13:56;;;;;;;0.20;0.20;;;10.00;99.90;;;;;;5032633;28;20078;-76
2023/05/25 05:16:22;;;;;;;0.20;0.20;;;10.10;99.90;;;;;;5032468;28;20025;-76
2023/05/25 05:18:48;;;;;;;0.20;0.20;;;10.20;99.90;;;;;;5033662;28;20121;-77
2023/05/25 05:21:13;;;;;;;0.13;0.13;;;10.30;99.90;;;;;;5036106;28;20017;-76
2023/05/25 05:23:41;;;;;;;0.10;0.10;;;10.40;99.90;;;;;;5036113;28;20391;-76
2023/05/25 05:26:10;;;;;;;0.13;0.13;;;10.50;99.90;;;;;;5036130;28;20026;-76
2023/05/25 05:28:36;;;;;;;0.10;0.10;;;10.50;99.90;;;;;;5036059;28;20026;-76
2023/05/25 05:31:01;;;;;;;0.10;0.10;;;10.60;99.90;;;;;;5034574;28;20048;-76
2023/05/25 05:33:27;;;;;;;0.20;0.20;;;10.60;99.90;;;;;;5035938;28;20499;-76
2023/05/25 05:35:53;;;;;;;0.17;0.17;;;10.70;99.90;;;;;;5035853;28;20022;-76
2023/05/25 05:38:19;;;;;;;0.22;0.22;;;10.80;99.90;;;;;;5036093;28;20060;-77
2023/05/25 05:40:44;;;;;;;0.20;0.20;;;10.90;99.90;;;;;;5035909;28;20424;-77
2023/05/25 05:43:12;;;;;;;0.20;0.20;;;11.00;99.90;;;;;;5036104;28;20120;-75
2023/05/25 05:45:37;;;;;;;0.10;0.10;;;11.10;99.90;;;;;;5036453;28;20501;-77
2023/05/25 05:48:03;;;;;;;0.20;0.20;;;11.10;99.90;;;;;;5035583;28;20040;-76
2023/05/25 05:50:29;;;;;;;0.20;0.20;;;11.20;99.90;;;;;;5035787;28;20155;-76
2023/05/25 05:52:55;;;;;;;0.20;0.20;;;11.30;99.90;;;;;;5034234;28;20049;-76
2023/05/25 05:55:21;;;;;;;0.10;0.10;;;11.40;99.90;;;;;;5035444;28;20119;-76
2023/05/25 05:57:46;;;;;;;0.20;0.20;;;11.40;99.90;;;;;;5035501;28;20147;-77
2023/05/25 06:00:13;;;;;;;0.10;0.10;;;11.60;99.90;;;;;;5035751;28;20105;-77
2023/05/25 06:02:39;;;;;;;0.10;0.10;;;11.60;99.90;;;;;;5034210;28;20108;-76
2023/05/25 06:05:05;;;;;;;0.10;0.10;;;11.70;99.90;;;;;;5035489;28;20153;-77
2023/05/25 06:07:33;;;;;;;0.17;0.17;;;11.60;99.90;;;;;;5035390;28;20498;-77
2023/05/25 06:09:59;;;;;;;0.10;0.10;;;11.70;99.90;;;;;;5035620;28;20104;-77
2023/05/25 06:12:25;;;;;;;0.20;0.20;;;11.80;99.90;;;;;;5035711;28;20463;-76
2023/05/25 06:14:50;;;;;;;0.20;0.20;;;11.70;99.90;;;;;;5035207;28;20034;-75
2023/05/25 06:17:16;;;;;;;0.10;0.10;;;11.90;99.90;;;;;;5035114;28;20105;-75
2023/05/25 06:19:42;;;;;;;0.20;0.20;;;11.90;99.90;;;;;;5035791;28;20487;-74
2023/05/25 06:22:07;;;;;;;0.20;0.20;;;12.10;99.90;;;;;;5034320;28;20033;-75
2023/05/25 06:24:33;;;;;;;0.20;0.20;;;12.30;99.90;;;;;;5036313;28;20034;-75
2023/05/25 06:26:58;;;;;;;0.15;0.15;;;12.40;99.90;;;;;;5037369;28;20028;-75
2023/05/25 06:29:24;;;;;;;0.15;0.15;;;12.50;99.90;;;;;;5035647;28;20479;-75
2023/05/25 06:31:49;;;;;;;0.20;0.20;;;12.70;99.90;;;;;;5035316;28;20044;-75
2023/05/25 06:34:15;;;;;;;0.20;0.20;;;12.80;99.90;;;;;;5033995;28;20025;-75
2023/05/25 06:36:41;;;;;;;0.10;0.10;;;12.90;99.90;;;;;;5035648;28;20032;-75
2023/05/25 06:39:06;;;;;;;0.20;0.20;;;13.10;99.90;;;;;;5034705;28;20430;-76
2023/05/25 06:41:32;;;;;;;0.17;0.17;;;13.20;99.90;;;;;;5033334;28;20487;-77
2023/05/25 06:43:57;;;;;;;0.20;0.20;;;13.30;99.90;;;;;;5034649;28;20509;-77
2023/05/25 06:46:23;;;;;;;0.10;0.10;;;13.40;99.90;;;;;;5034510;28;20029;-77
2023/05/25 06:48:48;;;;;;;0.10;0.10;;;13.00;99.90;;;;;;5034519;28;20033;-76
2023/05/25 06:51:14;;;;;;;0.10;0.10;;;12.90;99.90;;;;;;5034350;28;20029;-77
2023/05/25 06:53:39;;;;;;;0.10;0.10;;;12.90;99.90;;;;;;5034443;28;20033;-77
2023/05/25 06:56:05;;;;;;;0.10;0.10;;;12.90;99.90;;;;;;5034340;28;20056;-77
2023/05/25 06:58:31;;;;;;;0.20;0.20;;;13.10;99.90;;;;;;5033111;28;20063;-77
2023/05/25 07:00:56;;;;;;;0.20;0.20;;;13.30;99.90;;;;;;5034286;28;20028;-77
2023/05/25 07:03:22;;;;;;;0.20;0.20;;;13.40;99.90;;;;;;5034444;28;20503;-77
2023/05/25 07:05:48;;;;;;;0.10;0.10;;;13.40;99.90;;;;;;5034325;28;20052;-77
2023/05/25 07:08:13;;;;;;;0.13;0.13;;;13.40;99.90;;;;;;5034392;28;20394;-77
2023/05/25 07:10:39;;;;;;;0.10;0.10;;;13.30;99.90;;;;;;5035280;28;20044;-77
2023/05/25 07:13:04;;;;;;;0.10;0.10;;;13.20;99.90;;;;;;5032927;28;20025;-77
2023/05/25 07:15:30;;;;;;;0.20;0.20;;;13.40;99.90;;;;;;5034592;28;20034;-74
2023/05/25 07:17:56;;;;;;;0.10;0.10;;;13.50;99.90;;;;;;5034266;28;20029;-74
2023/05/25 07:20:22;;;;;;;0.20;0.20;;;13.60;99.90;;;;;;5029293;28;20877;-73
2023/05/25 07:22:48;;;;;;;0.10;0.10;;;13.70;99.90;;;;;;5033132;28;20070;-74
2023/05/25 07:25:14;;;;;;;0.20;0.20;;;13.70;99.90;;;;;;5025964;28;20480;-73
2023/05/25 07:27:41;;;;;;;0.10;0.10;;;13.90;99.90;;;;;;5014102;28;20029;-75
2023/05/25 07:30:07;;;;;;;0.10;0.10;;;14.10;99.90;;;;;;5014198;28;20159;-76
2023/05/25 07:32:33;;;;;;;0.17;0.17;;;14.10;99.90;;;;;;5016351;28;20068;-75
2023/05/25 07:34:58;;;;;;;0.20;0.20;;;14.30;99.90;;;;;;5015455;28;20365;-75
2023/05/25 07:37:24;;;;;;;0.10;0.10;;;14.30;99.90;;;;;;5015971;28;20053;-77
2023/05/25 07:39:49;;;;;;;0.20;0.20;;;14.30;99.90;;;;;;5017429;28;20383;-77
2023/05/25 07:42:19;;;;;;;0.10;0.10;;;14.30;99.90;;;;;;5015304;28;20045;-76
2023/05/25 07:44:46;;;;;;;0.10;0.10;;;14.40;99.90;;;;;;5015693;28;20018;-76
2023/05/25 07:47:11;;;;;;;0.20;0.20;;;14.30;99.90;;;;;;5014416;28;20112;-74
2023/05/25 07:49:37;;;;;;;0.10;0.10;;;14.40;99.90;;;;;;5013816;28;20108;-73
2023/05/25 07:52:04;;;;;;;0.10;0.10;;;14.50;99.90;;;;;;5013368;28;20430;-74
2023/05/25 07:54:30;;;;;;;0.15;0.15;;;14.60;99.90;;;;;;5013544;28;20025;-73
2023/05/25 07:56:55;;;;;;;0.20;0.20;;;14.70;99.90;;;;;;5013474;28;20022;-73
2023/05/25 07:59:21;;;;;;;0.20;0.20;;;14.70;99.90;;;;;;5013632;28;20495;-75
2023/05/25 08:01:47;;;;;;;0.20;0.20;;;14.70;99.90;;;;;;5014104;28;20053;-75
2023/05/25 08:04:12;;;;;;;0.20;0.20;;;14.80;99.90;;;;;;5013663;28;20028;-75
2023/05/25 08:06:38;;;;;;;0.10;0.10;;;15.00;99.90;;;;;;5013785;28;20488;-73
2023/05/25 08:09:05;;;;;;;0.20;0.20;;;15.10;99.90;;;;;;5013646;28;20081;-73
2023/05/25 08:11:30;;;;;;;0.10;0.10;;;15.00;99.90;;;;;;5013571;28;20092;-74
2023/05/25 08:13:56;;;;;;;0.10;0.10;;;15.10;99.90;;;;;;5013841;28;20484;-74
2023/05/25 08:16:22;;;;;;;0.05;0.05;;;15.30;99.90;;;;;;5013648;28;20026;-74
2023/05/25 08:18:47;;;;;;;0.10;0.10;;;15.40;99.90;;;;;;5013671;28;20124;-73
2023/05/25 08:21:13;;;;;;;0.20;0.20;;;15.40;99.90;;;;;;5016656;28;20084;-74
2023/05/25 08:23:41;;;;;;;0.10;0.10;;;15.60;99.90;;;;;;5032673;28;20048;-74
2023/05/25 08:26:08;;;;;;;0.10;0.10;;;15.70;99.90;;;;;;5032661;28;20049;-74
2023/05/25 08:28:34;;;;;;;0.10;0.10;;;15.90;99.90;;;;;;5032829;28;20038;-75
2023/05/25 08:31:00;;;;;;;0.20;0.20;;;16.00;99.90;;;;;;5055658;23;20141;-70
2023/05/25 08:33:26;;;;;;;0.10;0.10;;;16.00;99.90;;;;;;5032292;28;20097;-70
2023/05/25 08:35:52;;;;;;;0.10;0.10;;;15.90;99.90;;;;;;5032278;28;20088;-70
2023/05/25 08:38:17;;;;;;;0.10;0.10;;;16.10;99.90;;;;;;5032659;28;20097;-70
2023/05/25 08:40:44;;;;;;;0.10;0.10;;;16.20;99.90;;;;;;5032262;28;20490;-70
2023/05/25 08:43:10;;;;;;;0.10;0.10;;;16.40;99.90;;;;;;5032391;28;20072;-70
2023/05/25 08:45:35;;;;;;;0.10;0.10;;;16.40;99.90;;;;;;5032158;28;20053;-70
2023/05/25 08:48:07;;;;;;;0.10;0.10;;;16.30;99.90;;;;;;5032070;28;20025;-71
2023/05/25 08:50:33;;;;;;;0.10;0.10;;;16.20;99.90;;;;;;5032727;28;20083;-70
2023/05/25 08:53:02;;;;;;;0.13;0.13;;;16.20;99.90;;;;;;5032531;28;20454;-70
2023/05/25 08:55:30;;;;;;;0.10;0.10;;;16.30;99.90;;;;;;5036071;28;20398;-70
2023/05/25 08:58:07;;;;;;;0.20;0.20;;;16.50;99.90;;;;;;5036463;28;20486;-70
2023/05/25 09:00:36;;;;;;;0.20;0.20;;;16.70;99.90;;;;;;5035826;28;20038;-70
2023/05/25 09:03:10;;;;;;;0.10;0.10;;;16.90;99.90;;;;;;5036310;28;20021;-71
2023/05/25 09:05:36;;;;;;;0.10;0.10;;;17.10;99.90;;;;;;5036149;28;20109;-70
2023/05/25 09:08:05;;;;;;;0.10;0.10;;;17.20;99.90;;;;;;5034800;28;20116;-70
2023/05/25 09:10:33;;;;;;;0.10;0.10;;;17.30;99.90;;;;;;5035855;28;20048;-70
2023/05/25 09:12:59;;;;;;;0.10;0.10;;;17.00;99.90;;;;;;5036143;28;20492;-70
2023/05/25 09:15:24;;;;;;;0.10;0.10;;;16.90;99.90;;;;;;5035570;28;20033;-70
2023/05/25 09:17:50;;;;;;;0.10;0.10;;;16.80;99.90;;;;;;5035922;28;20017;-70
2023/05/25 09:20:18;;;;;;;0.20;0.20;;;16.90;99.90;;;;;;5035688;28;20021;-70
2023/05/25 09:22:44;;;;;;;0.10;0.10;;;16.80;99.90;;;;;;5035888;28;20033;-70
2023/05/25 09:25:10;;;;;;;0.10;0.10;;;16.80;99.90;;;;;;5035465;28;20041;-69
2023/05/25 09:27:36;;;;;;;0.10;0.10;;;17.00;99.90;;;;;;5035804;28;20033;-70
2023/05/25 09:30:03;;;;;;;0.17;0.17;;;17.20;99.90;;;;;;5035730;28;20360;-70
2023/05/25 09:32:29;;;;;;;0.10;0.10;;;17.30;99.90;;;;;;5035657;28;20030;-70
2023/05/25 09:35:05;;;;;;;0.10;0.10;;;17.40;99.90;;;;;;5035504;28;20033;-70
2023/05/25 09:37:31;;;;;;;0.15;0.15;;;17.50;99.90;;;;;;5035500;28;20104;-70
2023/05/25 09:39:56;;;;;;;0.10;0.10;;;17.60;99.90;;;;;;5035279;28;20431;-70
2023/05/25 09:42:22;;;;;;;0.20;0.20;;;17.80;99.90;;;;;;5035332;28;20029;-70
2023/05/25 09:44:48;;;;;;;0.10;0.10;;;18.00;99.90;;;;;;5035201;28;20113;-70
2023/05/25 09:47:15;;;;;;;0.10;0.10;;;18.20;99.90;;;;;;5035446;28;20021;-70
2023/05/25 09:49:43;;;;;;;0.10;0.10;;;18.40;99.90;;;;;;5035193;28;20024;-70
2023/05/25 09:52:10;;;;;;;0.10;0.10;;;18.20;99.90;;;;;;5035650;28;20041;-70
2023/05/25 09:54:37;;;;;;;0.10;0.10;;;18.30;99.90;;;;;;5035241;28;20029;-70
2023/05/25 09:57:04;;;;;;;0.10;0.10;;;18.40;99.90;;;;;;5034768;28;20017;-70
2023/05/25 09:59:30;;;;;;;0.00;0.00;;;18.30;99.90;;;;;;5035461;28;20104;-70
2023/05/25 10:01:55;;;;;;;0.10;0.10;;;18.10;99.90;;;;;;5035024;28;20025;-70
2023/05/25 10:04:21;;;;;;;0.10;0.10;;;18.10;99.90;;;;;;5035014;28;20384;-70
2023/05/25 10:06:48;;;;;;;0.10;0.10;;;18.10;99.90;;;;;;5034930;28;20025;-70
2023/05/25 10:09:15;;;;;;;0.10;0.10;;;18.00;99.90;;;;;;5035041;28;20033;-70
2023/05/25 10:11:42;;;;;;;0.10;0.10;;;18.00;99.90;;;;;;5034589;28;20057;-70
2023/05/25 10:14:11;;;;;;;0.10;0.10;;;18.10;99.90;;;;;;5034777;28;20040;-70
2023/05/25 10:16:39;;;;;;;0.10;0.10;;;18.40;99.90;;;;;;5034682;28;20034;-71
2023/05/25 10:19:16;;;;;;;0.10;0.10;;;18.60;99.90;;;;;;5033458;28;20434;-71
2023/05/25 10:21:46;;;;;;;0.10;0.10;;;18.70;99.90;;;;;;5034834;28;20079;-71
2023/05/25 10:24:27;;;;;;;0.10;0.10;;;18.40;99.90;;;;;;5034656;28;20503;-70
2023/05/25 10:26:55;;;;;;;0.20;0.20;;;18.30;99.90;;;;;;5035055;28;20022;-71
2023/05/25 10:29:23;;;;;;;0.10;0.10;;;18.30;99.90;;;;;;5034779;28;20060;-71
2023/05/25 10:31:50;;;;;;;0.20;0.20;;;18.70;99.90;;;;;;5034463;28;20063;-71
2023/05/25 10:34:16;;;;;;;0.10;0.10;;;18.70;99.90;;;;;;5034717;28;20021;-70
2023/05/25 10:36:41;;;;;;;0.10;0.10;;;18.90;99.90;;;;;;5034517;28;20104;-71
2023/05/25 10:39:08;;;;;;;0.10;0.10;;;19.00;99.90;;;;;;5034630;28;20547;-71
2023/05/25 10:41:33;;;;;;;0.10;0.10;;;19.20;99.90;;;;;;5034492;28;20496;-71
2023/05/25 10:44:00;;;;;;;0.10;0.10;;;19.00;99.90;;;;;;5034494;28;20033;-71
2023/05/25 10:46:27;;;;;;;0.10;0.10;;;18.80;99.90;;;;;;5034484;28;20063;-71
2023/05/25 10:48:59;;;;;;;0.10;0.10;;;19.10;99.90;;;;;;5034635;28;20112;-71
2023/05/25 10:51:39;;;;;;;0.10;0.10;;;19.40;99.90;;;;;;5034422;28;20116;-71
2023/05/25 10:54:05;;;;;;;0.13;0.13;;;19.50;99.90;;;;;;5034703;28;20382;-70
2023/05/25 10:56:31;;;;;;;0.10;0.10;;;19.50;99.90;;;;;;5034098;28;20029;-70
2023/05/25 10:58:56;;;;;;;0.10;0.10;;;19.90;99.90;;;;;;5034810;28;20025;-70
2023/05/25 11:01:22;;;;;;;0.10;0.10;;;20.10;99.90;;;;;;5034238;28;20025;-70
2023/05/25 11:03:55;;;;;;;0.10;0.10;;;20.10;99.90;;;;;;5034126;28;20026;-70
2023/05/25 11:06:36;;;;;;;0.10;0.10;;;20.00;99.90;;;;;;5034609;28;20155;-70
2023/05/25 11:09:02;;;;;;;0.10;0.10;;;19.80;99.90;;;;;;5034267;28;20554;-70
2023/05/25 11:11:44;;;;;;;0.10;0.10;;;19.90;99.90;;;;;;5033926;28;20091;-71
2023/05/25 11:14:29;;;;;;;0.20;0.20;;;20.10;99.90;;;;;;5033903;28;20018;-70
2023/05/25 11:17:10;;;;;;;0.10;0.10;;;19.90;99.90;;;;;;5033363;28;20383;-70
2023/05/25 11:19:55;;;;;;;0.10;0.10;;;19.70;99.90;;;;;;5034125;28;20017;-70
2023/05/25 11:22:39;;;;;;;0.10;0.10;;;19.90;99.90;;;;;;5034080;28;20063;-70
2023/05/25 11:25:23;;;;;;;;;;;20.40;99.90;;;;;;5034103;28;20503;-70
2023/05/25 11:27:53;;;;;;;0.10;0.10;;;20.50;99.90;;;;;;5033600;28;19912;-70
2023/05/25 11:30:18;;;;;;;0.10;0.10;;;20.20;99.90;;;;;;5033891;28;20042;-70
2023/05/25 11:32:50;;;;;;;0.10;0.10;;;20.20;99.90;;;;;;5033640;28;20038;-71
2023/05/25 11:35:15;;;;;;;0.10;0.10;;;20.40;99.90;;;;;;5032102;28;20037;-71
2023/05/25 11:37:48;;;;;;;0.10;0.10;;;20.70;99.90;;;;;;5033282;28;20164;-71
2023/05/25 11:40:14;;;;;;;0.10;0.10;;;20.70;99.90;;;;;;5033347;28;20062;-71
2023/05/25 11:42:40;;;;;;;0.10;0.10;;;20.20;99.90;;;;;;5033442;28;20074;-71
2023/05/25 11:45:10;;;;;;;0.00;0.00;;;20.40;99.90;;;;;;5033300;28;20037;-71
2023/05/25 11:47:36;;;;;;;0.10;0.10;;;20.60;99.90;;;;;;5033290;28;20108;-71
2023/05/25 11:50:01;;;;;;;0.10;0.10;;;21.00;99.90;;;;;;5033201;28;20132;-70
2023/05/25 11:52:27;;;;;;;0.10;0.10;;;21.10;99.90;;;;;;5033220;28;20120;-70
2023/05/25 11:54:54;;;;;;;0.10;0.10;;;21.30;99.90;;;;;;5033462;28;20087;-70
2023/05/25 11:57:26;;;;;;;0.10;0.10;;;21.70;99.90;;;;;;5033285;28;20026;-70
2023/05/25 11:59:54;;;;;;;0.00;0.00;;;21.90;99.90;;;;;;5033379;28;20076;-71
2023/05/25 12:02:21;;;;;;;0.10;0.10;;;22.30;99.90;;;;;;5033079;28;20071;-71
2023/05/25 12:04:57;;;;;;;0.10;0.10;;;21.90;99.90;;;;;;5033315;28;20034;-71
2023/05/25 12:07:25;;;;;;;0.10;0.10;;;21.40;99.90;;;;;;5033136;28;20141;-71
2023/05/25 12:09:51;;;;;;;0.10;0.10;;;21.80;99.90;;;;;;5033008;28;20104;-71
2023/05/25 12:12:16;;;;;;;0.00;0.00;;;21.60;99.90;;;;;;5033076;28;20021;-71
2023/05/25 12:14:49;;;;;;;0.10;0.10;;;22.00;99.90;;;;;;5031566;28;20021;-71
2023/05/25 12:17:17;;;;;;;0.10;0.10;;;21.70;99.90;;;;;;5033298;28;20056;-70
2023/05/25 12:19:43;;;;;;;0.10;0.10;;;21.90;99.90;;;;;;5033074;28;20029;-71
2023/05/25 12:22:10;;;;;;;0.10;0.10;;;21.70;99.90;;;;;;5032869;28;20057;-71
2023/05/25 12:24:36;;;;;;;0.10;0.10;;;21.50;99.90;;;;;;5032882;28;20023;-71
2023/05/25 12:27:03;;;;;;;0.10;0.10;;;21.40;99.90;;;;;;5032889;28;20087;-71
2023/05/25 12:29:29;;;;;;;0.08;0.08;;;21.30;99.90;;;;;;5036812;28;20028;-71
2023/05/25 12:32:02;;;;;;;0.00;0.00;;;21.90;99.90;;;;;;5036802;28;20037;-70
2023/05/25 12:34:28;;;;;;;0.10;0.10;;;22.20;99.90;;;;;;5036890;28;20064;-71
2023/05/25 12:36:55;;;;;;;0.00;0.00;;;22.40;99.90;;;;;;5036888;28;20399;-71
2023/05/25 12:39:30;;;;;;;0.00;0.00;;;22.60;99.90;;;;;;5036911;28;20025;-70
2023/05/25 12:42:03;;;;;;;0.10;0.10;;;23.20;99.90;;;;;;5036768;28;20035;-72
2023/05/25 12:44:33;;;;;;;0.03;0.03;;;22.40;99.90;;;;;;5036426;28;20025;-71
2023/05/25 12:47:20;;;;;;;0.10;0.10;;;22.00;99.90;;;;;;5037072;28;20029;-71
2023/05/25 12:50:12;;;;;;;0.00;0.00;;;22.60;99.90;;;;;;5036673;28;20399;-71
2023/05/25 12:52:43;;;;;;;0.00;0.00;;;22.90;99.90;;;;;;5029011;28;20069;-72